createdAt,value
2023-03-16T00:00:52.496Z,3.12
2023-03-16T00:03:21.256Z,3.12
2023-03-16T00:05:53.609Z,3.13
2023-03-16T00:08:20.672Z,3.10
2023-03-16T00:10:47.583Z,3.08
2023-03-16T00:13:15.248Z,3.06
2023-03-16T00:15:42.667Z,3.07
2023-03-16T00:18:09.262Z,3.06
2023-03-16T00:20:36.133Z,3.07
2023-03-16T00:23:02.700Z,3.07
2023-03-16T00:25:29.809Z,3.03
2023-03-16T00:27:56.404Z,3.06
2023-03-16T00:30:22.994Z,3.07
2023-03-16T00:32:54.051Z,3.03
2023-03-16T00:35:21.711Z,3.01
2023-03-16T00:37:48.397Z,3.02
2023-03-16T00:40:16.195Z,3.02
2023-03-16T00:42:42.841Z,2.97
2023-03-16T00:45:10.319Z,2.98
2023-03-16T00:47:36.993Z,2.97
2023-03-16T00:50:03.817Z,2.96
2023-03-16T00:52:30.470Z,2.97
2023-03-16T00:54:57.295Z,2.96
2023-03-16T00:57:25.945Z,2.94
2023-03-16T00:59:52.796Z,2.91
2023-03-16T01:02:23.624Z,2.92
2023-03-16T01:04:51.895Z,2.92
2023-03-16T01:07:18.579Z,2.90
2023-03-16T01:09:45.152Z,2.89
2023-03-16T01:12:17.466Z,2.86
2023-03-16T01:14:46.011Z,2.87
2023-03-16T01:17:14.042Z,2.87
2023-03-16T01:19:41.678Z,2.87
2023-03-16T01:22:09.960Z,2.82
2023-03-16T01:24:37.159Z,2.80
2023-03-16T01:27:04.755Z,2.79
2023-03-16T01:29:32.042Z,2.80
2023-03-16T01:31:59.038Z,2.77
2023-03-16T01:34:25.795Z,2.73
2023-03-16T01:36:52.537Z,2.72
2023-03-16T01:39:19.143Z,2.67
2023-03-16T01:41:46.785Z,2.65
2023-03-16T01:44:24.390Z,2.65
2023-03-16T01:46:51.269Z,2.61
2023-03-16T01:49:21.388Z,2.60
2023-03-16T01:52:09.380Z,2.56
2023-03-16T01:54:52.826Z,2.51
2023-03-16T01:57:42.879Z,2.48
2023-03-16T02:00:20.469Z,2.47
2023-03-16T02:02:52.207Z,2.45
2023-03-16T02:05:28.770Z,2.42
2023-03-16T02:07:58.968Z,2.40
2023-03-16T02:10:28.885Z,2.37
2023-03-16T02:12:56.088Z,2.38
2023-03-16T02:15:22.995Z,2.35
2023-03-16T02:17:50.440Z,2.31
2023-03-16T02:20:35.682Z,2.27
2023-03-16T02:23:04.417Z,2.27
2023-03-16T02:25:52.216Z,2.27
2023-03-16T02:28:35.004Z,2.22
2023-03-16T02:31:02.595Z,2.21
2023-03-16T02:33:31.684Z,2.19
2023-03-16T02:35:58.445Z,2.16
2023-03-16T02:38:25.267Z,2.15
2023-03-16T02:41:01.638Z,2.12
2023-03-16T02:43:34.927Z,2.11
2023-03-16T02:46:06.204Z,2.09
2023-03-16T02:48:57.985Z,2.08
2023-03-16T02:51:24.571Z,2.05
2023-03-16T02:53:51.107Z,2.00
2023-03-16T02:56:17.776Z,1.99
2023-03-16T02:58:44.343Z,1.96
2023-03-16T03:01:11.520Z,1.96
2023-03-16T03:03:38.182Z,1.94
2023-03-16T03:06:05.006Z,1.92
2023-03-16T03:08:33.296Z,1.93
2023-03-16T03:11:00.058Z,1.91
2023-03-16T03:13:26.660Z,1.88
2023-03-16T03:15:53.638Z,1.86
2023-03-16T03:18:20.225Z,1.85
2023-03-16T03:20:46.892Z,1.85
2023-03-16T03:23:15.392Z,1.84
2023-03-16T03:25:42.458Z,1.81
2023-03-16T03:28:09.266Z,1.81
2023-03-16T03:30:36.048Z,1.80
2023-03-16T03:33:03.012Z,1.77
2023-03-16T03:35:29.646Z,1.75
2023-03-16T03:37:56.268Z,1.75
2023-03-16T03:40:23.243Z,1.75
2023-03-16T03:42:49.879Z,1.75
2023-03-16T03:45:16.698Z,1.75
2023-03-16T03:47:44.372Z,1.74
2023-03-16T03:50:12.460Z,1.72
2023-03-16T03:52:39.088Z,1.71
2023-03-16T03:55:06.241Z,1.70
2023-03-16T03:57:33.052Z,1.69
2023-03-16T03:59:59.682Z,1.63
2023-03-16T04:02:26.359Z,1.64
2023-03-16T04:04:53.056Z,1.63
2023-03-16T04:07:19.663Z,1.59
2023-03-16T04:09:46.231Z,1.59
2023-03-16T04:12:13.815Z,1.63
2023-03-16T04:14:40.400Z,1.58
2023-03-16T04:17:07.452Z,1.58
2023-03-16T04:19:34.093Z,1.56
2023-03-16T04:22:00.707Z,1.54
2023-03-16T04:24:30.290Z,1.53
2023-03-16T04:26:56.871Z,1.52
2023-03-16T04:29:25.487Z,1.50
2023-03-16T04:31:53.850Z,1.49
2023-03-16T04:34:24.917Z,1.46
2023-03-16T04:36:54.616Z,1.45
2023-03-16T04:39:21.586Z,1.40
2023-03-16T04:41:49.224Z,1.38
2023-03-16T04:44:16.032Z,1.37
2023-03-16T04:46:42.720Z,1.35
2023-03-16T04:49:09.942Z,1.30
2023-03-16T04:51:37.990Z,1.30
2023-03-16T04:54:05.164Z,1.31
2023-03-16T04:56:31.859Z,1.31
2023-03-16T04:58:58.447Z,1.30
2023-03-16T05:01:25.290Z,1.27
2023-03-16T05:03:52.927Z,1.29
2023-03-16T05:06:19.784Z,1.24
2023-03-16T05:08:46.438Z,1.24
2023-03-16T05:11:12.996Z,1.24
2023-03-16T05:13:39.675Z,1.26
2023-03-16T05:16:07.248Z,1.25
2023-03-16T05:18:34.091Z,1.24
2023-03-16T05:21:00.670Z,1.19
2023-03-16T05:23:27.285Z,1.21
2023-03-16T05:25:53.878Z,1.23
2023-03-16T05:28:20.444Z,1.22
2023-03-16T05:30:47.084Z,1.18
2023-03-16T05:33:13.731Z,1.21
2023-03-16T05:35:40.494Z,1.19
2023-03-16T05:38:08.690Z,1.19
2023-03-16T05:40:35.743Z,1.20
2023-03-16T05:43:02.365Z,1.18
2023-03-16T05:45:29.065Z,1.16
2023-03-16T05:47:55.928Z,1.16
2023-03-16T05:50:23.227Z,1.18
2023-03-16T05:52:49.769Z,1.19
2023-03-16T05:55:18.585Z,1.20
2023-03-16T05:57:45.269Z,1.19
2023-03-16T06:00:18.241Z,1.16
2023-03-16T06:02:49.832Z,1.19
2023-03-16T06:05:17.868Z,1.19
2023-03-16T06:07:44.975Z,1.17
2023-03-16T06:10:12.784Z,1.21
2023-03-16T06:12:39.851Z,1.21
2023-03-16T06:15:07.943Z,1.23
2023-03-16T06:17:38.498Z,1.21
2023-03-16T06:20:11.096Z,1.22
2023-03-16T06:22:41.717Z,1.24
2023-03-16T06:25:10.336Z,1.22
2023-03-16T06:27:37.080Z,1.24
2023-03-16T06:30:04.787Z,1.22
2023-03-16T06:32:31.884Z,1.24
2023-03-16T06:35:02.092Z,1.23
2023-03-16T06:37:29.473Z,1.24
2023-03-16T06:39:56.258Z,1.25
2023-03-16T06:42:23.952Z,1.24
2023-03-16T06:44:52.746Z,1.16
2023-03-16T06:47:19.910Z,1.24
2023-03-16T06:49:51.781Z,1.27
2023-03-16T06:52:18.421Z,1.29
2023-03-16T06:54:45.041Z,1.30
2023-03-16T06:57:11.738Z,1.30
2023-03-16T06:59:39.217Z,1.29
2023-03-16T07:02:07.248Z,1.32
2023-03-16T07:04:34.193Z,1.36
2023-03-16T07:07:01.489Z,1.38
2023-03-16T07:09:29.291Z,1.40
2023-03-16T07:11:55.982Z,1.44
2023-03-16T07:14:24.773Z,1.46
2023-03-16T07:16:52.861Z,1.38
2023-03-16T07:19:21.198Z,1.47
2023-03-16T07:21:47.783Z,1.49
2023-03-16T07:24:16.228Z,1.54
2023-03-16T07:26:43.375Z,1.44
2023-03-16T07:29:10.089Z,1.50
2023-03-16T07:31:36.796Z,1.35
2023-03-16T07:34:04.447Z,1.48
2023-03-16T07:36:31.513Z,1.45
2023-03-16T07:38:58.526Z,1.45
2023-03-16T07:41:25.586Z,1.49
2023-03-16T07:43:53.449Z,1.56
2023-03-16T07:46:20.355Z,1.63
2023-03-16T07:48:47.039Z,1.64
2023-03-16T07:51:14.181Z,1.69
2023-03-16T07:53:41.683Z,1.74
2023-03-16T07:56:08.802Z,1.78
2023-03-16T07:58:35.406Z,1.80
2023-03-16T08:01:02.227Z,1.85
2023-03-16T08:03:29.669Z,1.89
2023-03-16T08:05:56.390Z,1.94
2023-03-16T08:08:23.038Z,1.97
2023-03-16T08:10:52.748Z,1.98
2023-03-16T08:13:20.509Z,1.99
2023-03-16T08:15:58.338Z,2.03
2023-03-16T08:18:34.839Z,2.09
2023-03-16T08:21:01.383Z,2.10
2023-03-16T08:23:29.456Z,2.20
2023-03-16T08:25:57.570Z,2.22
2023-03-16T08:28:25.973Z,2.28
2023-03-16T08:30:54.268Z,2.31
2023-03-16T08:33:23.407Z,2.35
2023-03-16T08:35:50.834Z,2.41
2023-03-16T08:38:19.255Z,2.29
2023-03-16T08:40:50.341Z,2.41
2023-03-16T08:43:19.071Z,2.50
2023-03-16T08:45:46.805Z,2.56
2023-03-16T08:48:14.357Z,2.61
2023-03-16T08:50:43.308Z,2.68
2023-03-16T08:53:12.037Z,2.70
2023-03-16T08:55:38.604Z,2.76
2023-03-16T08:58:05.280Z,2.81
2023-03-16T09:00:31.891Z,2.82
2023-03-16T09:02:58.957Z,2.87
2023-03-16T09:05:25.809Z,2.94
2023-03-16T09:07:54.165Z,2.99
2023-03-16T09:10:23.157Z,3.06
2023-03-16T09:12:52.184Z,3.12
2023-03-16T09:15:20.849Z,3.18
2023-03-16T09:17:48.658Z,3.22
2023-03-16T09:20:26.844Z,3.32
2023-03-16T09:22:57.031Z,3.34
2023-03-16T09:25:25.509Z,3.38
2023-03-16T09:27:52.763Z,3.45
2023-03-16T09:30:19.916Z,3.49
2023-03-16T09:32:49.065Z,3.55
2023-03-16T09:35:16.101Z,3.63
2023-03-16T09:38:04.789Z,3.67
2023-03-16T09:40:30.853Z,3.72
2023-03-16T09:43:07.234Z,3.80
2023-03-16T09:46:12.180Z,3.89
2023-03-16T09:48:41.132Z,3.93
2023-03-16T09:51:18.519Z,3.93
2023-03-16T09:53:47.275Z,4.01
2023-03-16T09:56:33.917Z,4.07
2023-03-16T09:59:01.188Z,4.14
2023-03-16T10:01:48.412Z,4.18
2023-03-16T10:04:44.329Z,4.25
2023-03-16T10:07:22.211Z,4.32
2023-03-16T10:09:54.030Z,4.34
2023-03-16T10:12:21.901Z,4.40
2023-03-16T10:15:08.495Z,4.50
2023-03-16T10:17:50.757Z,4.57
2023-03-16T10:20:20.741Z,4.60
2023-03-16T10:22:49.456Z,4.64
2023-03-16T10:25:23.666Z,4.71
2023-03-16T10:27:50.923Z,4.82
2023-03-16T10:30:34.173Z,4.93
2023-03-16T10:33:03.618Z,4.95
2023-03-16T10:35:36.103Z,4.99
2023-03-16T10:38:02.719Z,5.07
2023-03-16T10:40:37.428Z,5.14
2023-03-16T10:43:14.065Z,5.16
2023-03-16T10:45:47.235Z,5.26
2023-03-16T10:48:17.368Z,5.33
2023-03-16T10:50:44.686Z,5.37
2023-03-16T10:53:18.588Z,5.41
2023-03-16T10:55:45.939Z,5.45
2023-03-16T10:58:25.271Z,5.47
2023-03-16T11:00:53.757Z,5.58
2023-03-16T11:03:31.610Z,5.64
2023-03-16T11:06:17.970Z,5.67
2023-03-16T11:08:45.357Z,5.74
2023-03-16T11:11:18.670Z,5.85
2023-03-16T11:13:49.015Z,5.88
2023-03-16T11:17:04.425Z,5.91
2023-03-16T11:19:38.795Z,5.98
2023-03-16T11:22:17.734Z,6.08
2023-03-16T11:24:52.862Z,6.19
2023-03-16T11:27:34.000Z,6.24
2023-03-16T11:30:14.804Z,6.28
2023-03-16T11:32:47.197Z,6.35
2023-03-16T11:35:20.661Z,6.44
2023-03-16T11:38:16.416Z,6.49
2023-03-16T11:41:00.315Z,6.62
2023-03-16T11:44:15.643Z,6.69
2023-03-16T11:46:45.953Z,6.69
2023-03-16T11:49:12.510Z,6.75
2023-03-16T11:51:59.011Z,6.82
2023-03-16T11:54:34.484Z,6.83
2023-03-16T11:57:10.155Z,6.87
2023-03-16T12:00:04.471Z,6.94
2023-03-16T12:02:57.902Z,7.05
2023-03-16T12:05:33.486Z,7.12
2023-03-16T12:08:05.920Z,7.16
2023-03-16T12:10:45.949Z,7.26
2023-03-16T12:13:30.579Z,7.37
2023-03-16T12:16:02.966Z,7.48
2023-03-16T12:18:53.450Z,7.51
2023-03-16T12:21:34.044Z,7.56
2023-03-16T12:24:03.498Z,7.61
2023-03-16T12:26:35.827Z,7.70
2023-03-16T12:29:14.348Z,7.78
2023-03-16T12:31:55.884Z,7.84
2023-03-16T12:34:32.373Z,7.92
2023-03-16T12:37:23.532Z,7.97
2023-03-16T12:40:10.149Z,7.99
2023-03-16T12:42:52.222Z,7.96
2023-03-16T12:45:42.111Z,8.08
2023-03-16T12:48:32.568Z,8.03
2023-03-16T12:51:01.933Z,8.11
2023-03-16T12:53:51.941Z,8.24
2023-03-16T12:56:49.024Z,8.30
2023-03-16T12:59:19.726Z,8.38
2023-03-16T13:01:51.723Z,8.38
2023-03-16T13:04:21.806Z,8.54
2023-03-16T13:06:52.345Z,8.56
2023-03-16T13:09:25.395Z,8.66
2023-03-16T13:11:53.329Z,8.57
2023-03-16T13:14:40.612Z,8.69
2023-03-16T13:17:16.924Z,8.83
2023-03-16T13:20:03.033Z,9.39
2023-03-16T13:22:40.856Z,9.08
2023-03-16T13:25:22.787Z,9.01
2023-03-16T13:27:55.768Z,8.97
2023-03-16T13:30:25.531Z,9.13
2023-03-16T13:33:00.515Z,9.21
2023-03-16T13:35:29.403Z,9.22
2023-03-16T13:38:05.784Z,9.22
2023-03-16T13:40:33.227Z,9.21
2023-03-16T13:43:02.042Z,9.36
2023-03-16T13:45:33.608Z,9.45
2023-03-16T13:48:02.033Z,9.46
2023-03-16T13:50:33.096Z,9.32
2023-03-16T13:53:04.290Z,9.37
2023-03-16T13:55:36.595Z,9.48
2023-03-16T13:58:04.419Z,9.52
2023-03-16T14:00:34.785Z,9.60
2023-03-16T14:03:13.446Z,9.63
2023-03-16T14:05:40.876Z,9.79
2023-03-16T14:08:19.634Z,9.81
2023-03-16T14:10:46.919Z,9.95
2023-03-16T14:13:29.574Z,9.94
2023-03-16T14:16:26.712Z,10.04
2023-03-16T14:19:03.519Z,10.03
2023-03-16T14:21:34.281Z,10.06
2023-03-16T14:24:07.031Z,10.13
2023-03-16T14:26:46.345Z,10.15
2023-03-16T14:29:31.644Z,10.23
2023-03-16T14:32:00.056Z,10.22
2023-03-16T14:34:39.706Z,10.28
2023-03-16T14:37:20.122Z,10.30
2023-03-16T14:39:58.190Z,10.25
2023-03-16T14:42:29.940Z,10.35
2023-03-16T14:45:01.820Z,10.36
2023-03-16T14:47:33.437Z,10.36
2023-03-16T14:50:07.791Z,10.35
2023-03-16T14:52:35.088Z,10.39
2023-03-16T14:55:14.753Z,10.45
2023-03-16T14:57:42.751Z,10.58
2023-03-16T15:00:12.620Z,10.43
2023-03-16T15:02:42.234Z,10.31
2023-03-16T15:05:11.272Z,10.40
2023-03-16T15:07:40.777Z,10.56
2023-03-16T15:10:22.591Z,10.69
2023-03-16T15:12:56.103Z,10.36
2023-03-16T15:15:24.042Z,10.61
2023-03-16T15:17:52.233Z,10.72
2023-03-16T15:20:25.776Z,10.82
2023-03-16T15:22:53.426Z,10.94
2023-03-16T15:25:22.997Z,10.86
2023-03-16T15:27:50.209Z,10.82
2023-03-16T15:30:19.942Z,10.97
2023-03-16T15:32:46.729Z,10.93
2023-03-16T15:35:13.657Z,10.91
2023-03-16T15:37:40.376Z,10.96
2023-03-16T15:40:28.587Z,10.82
2023-03-16T15:42:55.630Z,10.91
2023-03-16T15:45:23.135Z,10.95
2023-03-16T15:47:51.637Z,10.98
2023-03-16T15:50:21.889Z,10.96
2023-03-16T15:52:54.594Z,10.89
2023-03-16T15:55:24.332Z,10.96
2023-03-16T15:57:59.377Z,10.90
2023-03-16T16:00:37.492Z,10.87
2023-03-16T16:03:06.539Z,10.78
2023-03-16T16:05:33.765Z,10.83
2023-03-16T16:08:00.810Z,10.86
2023-03-16T16:10:29.074Z,10.87
2023-03-16T16:12:56.919Z,10.98
2023-03-16T16:15:33.994Z,10.95
2023-03-16T16:18:20.489Z,10.95
2023-03-16T16:20:48.481Z,10.99
2023-03-16T16:23:15.206Z,10.82
2023-03-16T16:25:42.451Z,10.86
2023-03-16T16:28:29.917Z,10.90
2023-03-16T16:30:58.503Z,10.88
2023-03-16T16:33:25.127Z,10.72
2023-03-16T16:35:53.852Z,10.75
2023-03-16T16:38:21.081Z,10.76
2023-03-16T16:40:48.362Z,10.78
2023-03-16T16:43:41.417Z,10.75
2023-03-16T16:46:41.426Z,10.71
2023-03-16T16:49:15.280Z,10.71
2023-03-16T16:51:42.731Z,10.55
2023-03-16T16:54:26.210Z,10.67
2023-03-16T16:56:54.582Z,10.53
2023-03-16T16:59:28.049Z,10.58
2023-03-16T17:01:55.419Z,10.59
2023-03-16T17:04:25.940Z,10.55
2023-03-16T17:07:02.252Z,10.51
2023-03-16T17:09:30.947Z,10.52
2023-03-16T17:12:01.300Z,10.46
2023-03-16T17:14:28.387Z,10.41
2023-03-16T17:16:56.215Z,10.38
2023-03-16T17:19:29.730Z,10.39
2023-03-16T17:21:58.768Z,10.36
2023-03-16T17:24:26.144Z,10.33
2023-03-16T17:26:56.153Z,10.27
2023-03-16T17:29:30.239Z,10.25
2023-03-16T17:32:01.330Z,10.23
2023-03-16T17:34:30.357Z,10.19
2023-03-16T17:36:57.214Z,10.14
2023-03-16T17:39:27.815Z,10.12
2023-03-16T17:41:58.544Z,10.08
2023-03-16T17:44:28.402Z,10.04
2023-03-16T17:46:55.074Z,10.00
2023-03-16T17:49:24.198Z,9.99
2023-03-16T17:51:51.012Z,9.92
2023-03-16T17:54:18.854Z,9.89
2023-03-16T17:56:47.740Z,9.85
2023-03-16T17:59:19.215Z,9.83
2023-03-16T18:01:47.502Z,9.78
2023-03-16T18:04:19.081Z,9.72
2023-03-16T18:06:47.654Z,9.68
2023-03-16T18:09:16.008Z,9.64
2023-03-16T18:11:48.030Z,9.59
2023-03-16T18:14:39.922Z,9.56
2023-03-16T18:17:24.919Z,9.52
2023-03-16T18:19:51.916Z,9.45
2023-03-16T18:22:22.516Z,9.41
2023-03-16T18:24:50.701Z,9.37
2023-03-16T18:27:17.646Z,9.35
2023-03-16T18:29:45.925Z,9.30
2023-03-16T18:32:27.528Z,9.26
2023-03-16T18:34:54.941Z,9.20
2023-03-16T18:37:28.216Z,9.15
2023-03-16T18:39:56.317Z,9.12
2023-03-16T18:42:26.269Z,9.08
2023-03-16T18:44:54.056Z,9.05
2023-03-16T18:47:24.008Z,9.02
2023-03-16T18:49:54.488Z,8.99
2023-03-16T18:52:25.217Z,8.94
2023-03-16T18:54:53.420Z,8.89
2023-03-16T18:57:31.955Z,8.84
2023-03-16T18:59:58.518Z,8.79
2023-03-16T19:02:36.170Z,8.74
2023-03-16T19:05:11.722Z,8.70
2023-03-16T19:07:42.903Z,8.66
2023-03-16T19:10:28.785Z,8.61
2023-03-16T19:12:56.306Z,8.56
2023-03-16T19:15:36.688Z,8.47
2023-03-16T19:18:03.714Z,8.43
2023-03-16T19:20:33.374Z,8.39
2023-03-16T19:23:06.900Z,8.34
2023-03-16T19:25:38.858Z,8.32
2023-03-16T19:28:08.380Z,8.26
2023-03-16T19:30:36.369Z,8.21
2023-03-16T19:33:03.539Z,8.16
2023-03-16T19:35:48.611Z,8.11
2023-03-16T19:38:18.521Z,8.06
2023-03-16T19:40:46.716Z,8.04
2023-03-16T19:43:19.649Z,8.00
2023-03-16T19:45:48.426Z,7.93
2023-03-16T19:48:21.521Z,7.90
2023-03-16T19:50:50.543Z,7.86
2023-03-16T19:53:19.760Z,7.83
2023-03-16T19:55:48.438Z,7.79
2023-03-16T19:58:21.242Z,7.73
2023-03-16T20:00:48.010Z,7.69
2023-03-16T20:03:15.162Z,7.64
2023-03-16T20:05:42.177Z,7.57
2023-03-16T20:08:27.095Z,7.54
2023-03-16T20:11:01.773Z,7.49
2023-03-16T20:13:31.634Z,7.46
2023-03-16T20:15:58.740Z,7.40
2023-03-16T20:18:26.015Z,7.33
2023-03-16T20:20:52.944Z,7.30
2023-03-16T20:23:27.227Z,7.25
2023-03-16T20:25:57.490Z,7.20
2023-03-16T20:28:31.005Z,7.16
2023-03-16T20:30:59.616Z,7.12
2023-03-16T20:33:28.952Z,7.07
2023-03-16T20:36:00.057Z,7.02
2023-03-16T20:38:27.671Z,6.97
2023-03-16T20:40:55.028Z,6.94
2023-03-16T20:43:25.784Z,6.89
2023-03-16T20:45:55.851Z,6.85
2023-03-16T20:48:25.664Z,6.80
2023-03-16T20:50:54.785Z,6.76
2023-03-16T20:53:22.743Z,6.73
2023-03-16T20:55:54.622Z,6.69
2023-03-16T20:58:22.903Z,6.63
2023-03-16T21:00:50.963Z,6.60
2023-03-16T21:03:23.705Z,6.56
2023-03-16T21:05:51.804Z,6.48
2023-03-16T21:08:19.686Z,6.46
2023-03-16T21:10:49.967Z,6.39
2023-03-16T21:13:26.027Z,6.36
2023-03-16T21:15:55.088Z,6.33
2023-03-16T21:18:22.251Z,6.25
2023-03-16T21:20:50.182Z,6.22
2023-03-16T21:23:19.921Z,6.20
2023-03-16T21:25:50.528Z,6.15
2023-03-16T21:28:19.306Z,6.12
2023-03-16T21:30:51.292Z,6.08
2023-03-16T21:33:31.504Z,6.05
2023-03-16T21:36:00.320Z,6.00
2023-03-16T21:38:28.759Z,5.99
2023-03-16T21:40:56.052Z,5.96
2023-03-16T21:43:23.301Z,5.92
2023-03-16T21:45:51.855Z,5.86
2023-03-16T21:48:24.221Z,5.83
2023-03-16T21:50:52.407Z,5.78
2023-03-16T21:53:31.801Z,5.77
2023-03-16T21:55:58.778Z,5.70
2023-03-16T21:58:25.449Z,5.62
2023-03-16T22:00:53.937Z,5.62
2023-03-16T22:03:47.996Z,5.58
2023-03-16T22:06:17.157Z,5.51
2023-03-16T22:08:44.038Z,5.50
2023-03-16T22:11:17.167Z,5.44
2023-03-16T22:13:43.801Z,5.44
2023-03-16T22:16:16.034Z,5.41
2023-03-16T22:18:44.710Z,5.35
2023-03-16T22:21:36.423Z,5.30
2023-03-16T22:24:12.762Z,5.27
2023-03-16T22:26:39.622Z,5.25
2023-03-16T22:29:18.353Z,5.20
2023-03-16T22:31:47.030Z,5.15
2023-03-16T22:34:43.391Z,5.09
2023-03-16T22:37:13.774Z,5.05
2023-03-16T22:39:40.507Z,5.02
2023-03-16T22:42:28.153Z,4.96
2023-03-16T22:44:55.815Z,4.94
2023-03-16T22:47:27.722Z,4.87
2023-03-16T22:49:54.670Z,4.85
2023-03-16T22:52:29.381Z,4.83
2023-03-16T22:54:56.961Z,4.78
2023-03-16T22:57:26.374Z,4.77
2023-03-16T22:59:53.035Z,4.75
2023-03-16T23:02:23.744Z,4.69
2023-03-16T23:04:50.399Z,4.65
2023-03-16T23:07:17.028Z,4.62
2023-03-16T23:09:43.828Z,4.62
2023-03-16T23:12:17.313Z,4.57
2023-03-16T23:14:44.282Z,4.53
2023-03-16T23:17:19.137Z,4.49
2023-03-16T23:19:46.270Z,4.44
2023-03-16T23:22:13.357Z,4.42
2023-03-16T23:24:41.131Z,4.38
2023-03-16T23:27:19.371Z,4.34
2023-03-16T23:29:46.800Z,4.31
2023-03-16T23:32:16.869Z,4.26
2023-03-16T23:34:43.486Z,4.24
2023-03-16T23:37:10.232Z,4.22
2023-03-16T23:39:37.036Z,4.18
2023-03-16T23:42:04.286Z,4.15
2023-03-16T23:44:31.445Z,4.10
2023-03-16T23:46:59.658Z,4.06
2023-03-16T23:49:33.038Z,4.06
2023-03-16T23:52:01.498Z,4.02
2023-03-16T23:54:30.966Z,3.98
2023-03-16T23:56:58.041Z,3.92
2023-03-16T23:59:25.789Z,3.90
